South Waterford, Maine
Current Conditions -  °F | °C
As of 1:54 AM on Wednesday 22 Oct 2014 (Local Time) from KIZG Reporting Station
Heavy Rain Heavy Rain  
Wind Chill: 44°   Ceiling: 700
Heat Index: 46°   Visibility: 3mi
Dew Point: 44°   Wind: 5mph
Humidity: 93%   Direction: NA
Pressure: 30.1"   Gusts: NA
Location:  44.17°N, 70.72°W
Report Text: KIZG 220554Z AUTO VRB04KT 3SM +RA BR OVC007 08/07 A3010 RMK AO2 CIG 005V010 SLP195 P0009 60082 T00780067 10083 20072 58001
Loading
Personal Weather Stations






























Interactive Weather Map
Tropical Storm Tracking
New forecast layout! Learn more

10-Day Weather Forecast

Advertisements
Track Severe Weather on mobile